sensor_id;sensor_type;location;lat;lon;timestamp;P1;durP1;ratioP1;P2;durP2;ratioP2
49548;SDS011;35450;44.518;7.466;2022-12-05T00:01:29;7.13;;;4.72;;
49548;SDS011;35450;44.518;7.466;2022-12-05T00:04:33;6.90;;;4.93;;
49548;SDS011;35450;44.518;7.466;2022-12-05T00:07:37;12.60;;;8.55;;
49548;SDS011;35450;44.518;7.466;2022-12-05T00:10:41;12.32;;;8.38;;
49548;SDS011;35450;44.518;7.466;2022-12-05T00:13:45;14.05;;;8.13;;
49548;SDS011;35450;44.518;7.466;2022-12-05T00:16:50;9.13;;;5.82;;
49548;SDS011;35450;44.518;7.466;2022-12-05T00:19:54;11.27;;;6.05;;
49548;SDS011;35450;44.518;7.466;2022-12-05T00:22:58;7.30;;;5.22;;
49548;SDS011;35450;44.518;7.466;2022-12-05T00:26:03;7.35;;;5.55;;
49548;SDS011;35450;44.518;7.466;2022-12-05T00:29:08;11.20;;;7.22;;
49548;SDS011;35450;44.518;7.466;2022-12-05T00:32:13;8.45;;;5.82;;
49548;SDS011;35450;44.518;7.466;2022-12-05T00:35:17;3.42;;;2.72;;
49548;SDS011;35450;44.518;7.466;2022-12-05T00:38:21;4.25;;;2.92;;
49548;SDS011;35450;44.518;7.466;2022-12-05T00:41:25;5.35;;;3.72;;
49548;SDS011;35450;44.518;7.466;2022-12-05T00:44:30;3.63;;;2.63;;
49548;SDS011;35450;44.518;7.466;2022-12-05T00:47:35;6.30;;;2.75;;
49548;SDS011;35450;44.518;7.466;2022-12-05T00:50:39;5.03;;;3.03;;
49548;SDS011;35450;44.518;7.466;2022-12-05T00:53:43;3.30;;;2.50;;
49548;SDS011;35450;44.518;7.466;2022-12-05T00:56:48;5.13;;;3.30;;
49548;SDS011;35450;44.518;7.466;2022-12-05T00:59:54;4.53;;;2.92;;
49548;SDS011;35450;44.518;7.466;2022-12-05T01:02:58;4.82;;;2.97;;
49548;SDS011;35450;44.518;7.466;2022-12-05T01:06:02;4.45;;;3.08;;
49548;SDS011;35450;44.518;7.466;2022-12-05T01:09:10;3.22;;;2.38;;
49548;SDS011;35450;44.518;7.466;2022-12-05T01:12:16;3.58;;;2.50;;
49548;SDS011;35450;44.518;7.466;2022-12-05T01:15:20;3.97;;;2.88;;
49548;SDS011;35450;44.518;7.466;2022-12-05T01:18:24;4.18;;;3.13;;
49548;SDS011;35450;44.518;7.466;2022-12-05T01:21:29;3.40;;;2.58;;
49548;SDS011;35450;44.518;7.466;2022-12-05T01:24:33;4.53;;;2.35;;
49548;SDS011;35450;44.518;7.466;2022-12-05T01:27:38;4.00;;;2.83;;
49548;SDS011;35450;44.518;7.466;2022-12-05T01:30:44;4.93;;;2.88;;
49548;SDS011;35450;44.518;7.466;2022-12-05T01:33:49;4.03;;;2.70;;
49548;SDS011;35450;44.518;7.466;2022-12-05T01:36:54;4.70;;;2.30;;
49548;SDS011;35450;44.518;7.466;2022-12-05T01:39:58;4.68;;;3.30;;
49548;SDS011;35450;44.518;7.466;2022-12-05T01:43:03;6.07;;;3.28;;
49548;SDS011;35450;44.518;7.466;2022-12-05T01:46:12;5.35;;;3.70;;
49548;SDS011;35450;44.518;7.466;2022-12-05T01:52:33;4.82;;;3.03;;
49548;SDS011;35450;44.518;7.466;2022-12-05T01:55:38;7.93;;;5.05;;
49548;SDS011;35450;44.518;7.466;2022-12-05T01:58:42;5.43;;;3.67;;
49548;SDS011;35450;44.518;7.466;2022-12-05T02:01:48;4.22;;;2.55;;
49548;SDS011;35450;44.518;7.466;2022-12-05T02:05:09;6.90;;;3.20;;
49548;SDS011;35450;44.518;7.466;2022-12-05T02:08:34;5.28;;;3.60;;
49548;SDS011;35450;44.518;7.466;2022-12-05T02:11:49;4.18;;;3.10;;
49548;SDS011;35450;44.518;7.466;2022-12-05T02:15:12;4.65;;;3.33;;
49548;SDS011;35450;44.518;7.466;2022-12-05T02:18:28;2.25;;;1.80;;
49548;SDS011;35450;44.518;7.466;2022-12-05T02:22:00;2.38;;;1.92;;
49548;SDS011;35450;44.518;7.466;2022-12-05T02:32:35;2.13;;;1.80;;
49548;SDS011;35450;44.518;7.466;2022-12-05T02:39:23;2.03;;;1.77;;
49548;SDS011;35450;44.518;7.466;2022-12-05T02:42:43;2.58;;;2.25;;
49548;SDS011;35450;44.518;7.466;2022-12-05T02:45:54;3.65;;;2.30;;
49548;SDS011;35450;44.518;7.466;2022-12-05T02:49:02;2.17;;;1.80;;
49548;SDS011;35450;44.518;7.466;2022-12-05T02:52:15;2.40;;;2.10;;
49548;SDS011;35450;44.518;7.466;2022-12-05T02:55:20;2.60;;;1.95;;
49548;SDS011;35450;44.518;7.466;2022-12-05T02:58:30;2.03;;;1.80;;
49548;SDS011;35450;44.518;7.466;2022-12-05T03:01:42;1.67;;;1.58;;
49548;SDS011;35450;44.518;7.466;2022-12-05T03:04:47;2.53;;;1.70;;
49548;SDS011;35450;44.518;7.466;2022-12-05T03:07:51;1.98;;;1.77;;
49548;SDS011;35450;44.518;7.466;2022-12-05T03:10:58;2.08;;;1.83;;
49548;SDS011;35450;44.518;7.466;2022-12-05T03:14:05;2.72;;;1.80;;
49548;SDS011;35450;44.518;7.466;2022-12-05T03:17:16;2.25;;;1.60;;
49548;SDS011;35450;44.518;7.466;2022-12-05T03:21:11;2.22;;;1.88;;
49548;SDS011;35450;44.518;7.466;2022-12-05T03:23:59;1.85;;;1.67;;
49548;SDS011;35450;44.518;7.466;2022-12-05T03:30:43;2.83;;;1.73;;
49548;SDS011;35450;44.518;7.466;2022-12-05T03:33:54;1.60;;;1.50;;
49548;SDS011;35450;44.518;7.466;2022-12-05T03:37:04;1.67;;;1.50;;
49548;SDS011;35450;44.518;7.466;2022-12-05T03:50:16;2.50;;;1.92;;
49548;SDS011;35450;44.518;7.466;2022-12-05T03:53:26;1.35;;;1.25;;
49548;SDS011;35450;44.518;7.466;2022-12-05T03:56:36;1.98;;;1.70;;
49548;SDS011;35450;44.518;7.466;2022-12-05T04:03:24;2.05;;;1.90;;
49548;SDS011;35450;44.518;7.466;2022-12-05T04:06:41;1.92;;;1.70;;
49548;SDS011;35450;44.518;7.466;2022-12-05T04:09:51;2.90;;;1.50;;
49548;SDS011;35450;44.518;7.466;2022-12-05T04:13:03;2.00;;;1.50;;
49548;SDS011;35450;44.518;7.466;2022-12-05T04:16:33;2.13;;;1.92;;
49548;SDS011;35450;44.518;7.466;2022-12-05T04:20:38;2.08;;;1.88;;
49548;SDS011;35450;44.518;7.466;2022-12-05T04:23:59;2.83;;;1.83;;
49548;SDS011;35450;44.518;7.466;2022-12-05T04:30:33;3.72;;;2.70;;
49548;SDS011;35450;44.518;7.466;2022-12-05T04:33:54;2.83;;;2.08;;
49548;SDS011;35450;44.518;7.466;2022-12-05T04:37:03;3.63;;;2.53;;
49548;SDS011;35450;44.518;7.466;2022-12-05T04:40:21;9.10;;;4.07;;
49548;SDS011;35450;44.518;7.466;2022-12-05T04:43:30;6.22;;;3.58;;
49548;SDS011;35450;44.518;7.466;2022-12-05T04:46:39;9.70;;;7.22;;
49548;SDS011;35450;44.518;7.466;2022-12-05T04:49:46;9.35;;;6.28;;
49548;SDS011;35450;44.518;7.466;2022-12-05T04:52:51;8.43;;;5.47;;
49548;SDS011;35450;44.518;7.466;2022-12-05T04:55:58;7.80;;;4.50;;
49548;SDS011;35450;44.518;7.466;2022-12-05T04:59:04;4.13;;;3.03;;
49548;SDS011;35450;44.518;7.466;2022-12-05T05:02:08;4.20;;;2.97;;
49548;SDS011;35450;44.518;7.466;2022-12-05T05:05:15;5.50;;;3.72;;
49548;SDS011;35450;44.518;7.466;2022-12-05T05:08:23;3.17;;;2.85;;
49548;SDS011;35450;44.518;7.466;2022-12-05T05:11:31;2.30;;;2.10;;
49548;SDS011;35450;44.518;7.466;2022-12-05T05:14:37;2.30;;;2.00;;
49548;SDS011;35450;44.518;7.466;2022-12-05T05:17:41;4.03;;;1.90;;
49548;SDS011;35450;44.518;7.466;2022-12-05T05:20:45;3.40;;;2.78;;
49548;SDS011;35450;44.518;7.466;2022-12-05T05:23:49;5.65;;;3.63;;
49548;SDS011;35450;44.518;7.466;2022-12-05T05:26:53;4.30;;;3.20;;
49548;SDS011;35450;44.518;7.466;2022-12-05T05:29:56;4.65;;;2.88;;
49548;SDS011;35450;44.518;7.466;2022-12-05T05:33:00;3.20;;;2.42;;
49548;SDS011;35450;44.518;7.466;2022-12-05T05:36:05;5.70;;;4.03;;
49548;SDS011;35450;44.518;7.466;2022-12-05T05:39:14;2.67;;;1.88;;
49548;SDS011;35450;44.518;7.466;2022-12-05T05:42:19;3.15;;;2.60;;
49548;SDS011;35450;44.518;7.466;2022-12-05T05:45:22;2.72;;;2.40;;
49548;SDS011;35450;44.518;7.466;2022-12-05T05:48:26;2.47;;;2.20;;
49548;SDS011;35450;44.518;7.466;2022-12-05T05:51:30;3.20;;;2.17;;
49548;SDS011;35450;44.518;7.466;2022-12-05T05:54:34;2.42;;;2.22;;
49548;SDS011;35450;44.518;7.466;2022-12-05T05:57:38;2.63;;;2.03;;
49548;SDS011;35450;44.518;7.466;2022-12-05T06:00:42;2.67;;;2.42;;
49548;SDS011;35450;44.518;7.466;2022-12-05T06:03:46;3.15;;;2.00;;
49548;SDS011;35450;44.518;7.466;2022-12-05T06:06:50;2.08;;;1.92;;
49548;SDS011;35450;44.518;7.466;2022-12-05T06:09:54;2.85;;;2.30;;
49548;SDS011;35450;44.518;7.466;2022-12-05T06:12:58;2.97;;;2.60;;
49548;SDS011;35450;44.518;7.466;2022-12-05T06:16:09;5.10;;;3.92;;
49548;SDS011;35450;44.518;7.466;2022-12-05T06:19:15;5.63;;;3.97;;
49548;SDS011;35450;44.518;7.466;2022-12-05T06:22:19;6.78;;;4.93;;
49548;SDS011;35450;44.518;7.466;2022-12-05T06:25:22;6.93;;;4.88;;
49548;SDS011;35450;44.518;7.466;2022-12-05T06:28:26;21.50;;;8.13;;
49548;SDS011;35450;44.518;7.466;2022-12-05T06:31:30;18.45;;;9.95;;
49548;SDS011;35450;44.518;7.466;2022-12-05T06:34:36;9.55;;;5.43;;
49548;SDS011;35450;44.518;7.466;2022-12-05T06:37:41;5.22;;;4.15;;
49548;SDS011;35450;44.518;7.466;2022-12-05T06:40:46;16.92;;;11.68;;
49548;SDS011;35450;44.518;7.466;2022-12-05T06:43:53;15.30;;;7.90;;
49548;SDS011;35450;44.518;7.466;2022-12-05T06:46:58;20.45;;;11.77;;
49548;SDS011;35450;44.518;7.466;2022-12-05T06:50:02;24.67;;;13.80;;
49548;SDS011;35450;44.518;7.466;2022-12-05T06:53:06;14.75;;;8.32;;
49548;SDS011;35450;44.518;7.466;2022-12-05T06:56:11;6.65;;;5.60;;
49548;SDS011;35450;44.518;7.466;2022-12-05T06:59:17;7.75;;;4.55;;
49548;SDS011;35450;44.518;7.466;2022-12-05T07:02:21;6.05;;;5.10;;
49548;SDS011;35450;44.518;7.466;2022-12-05T07:05:25;27.98;;;18.42;;
49548;SDS011;35450;44.518;7.466;2022-12-05T07:08:29;14.25;;;8.60;;
49548;SDS011;35450;44.518;7.466;2022-12-05T07:11:33;21.27;;;10.23;;
49548;SDS011;35450;44.518;7.466;2022-12-05T07:14:37;14.43;;;8.27;;
49548;SDS011;35450;44.518;7.466;2022-12-05T07:17:41;56.10;;;29.75;;
49548;SDS011;35450;44.518;7.466;2022-12-05T07:20:54;23.67;;;14.85;;
49548;SDS011;35450;44.518;7.466;2022-12-05T07:24:02;119.85;;;62.90;;
49548;SDS011;35450;44.518;7.466;2022-12-05T07:27:06;136.27;;;74.82;;
49548;SDS011;35450;44.518;7.466;2022-12-05T07:30:10;67.22;;;39.08;;
49548;SDS011;35450;44.518;7.466;2022-12-05T07:33:14;76.28;;;41.50;;
49548;SDS011;35450;44.518;7.466;2022-12-05T07:36:20;112.13;;;58.78;;
49548;SDS011;35450;44.518;7.466;2022-12-05T07:39:26;43.83;;;24.58;;
49548;SDS011;35450;44.518;7.466;2022-12-05T07:42:30;24.73;;;15.25;;
49548;SDS011;35450;44.518;7.466;2022-12-05T07:45:34;61.78;;;34.83;;
49548;SDS011;35450;44.518;7.466;2022-12-05T07:48:38;336.20;;;190.65;;
49548;SDS011;35450;44.518;7.466;2022-12-05T07:51:42;143.65;;;81.18;;
49548;SDS011;35450;44.518;7.466;2022-12-05T07:54:46;159.00;;;93.95;;
49548;SDS011;35450;44.518;7.466;2022-12-05T07:57:50;77.75;;;47.78;;
49548;SDS011;35450;44.518;7.466;2022-12-05T08:00:54;22.38;;;14.77;;
49548;SDS011;35450;44.518;7.466;2022-12-05T08:03:58;15.77;;;10.23;;
49548;SDS011;35450;44.518;7.466;2022-12-05T08:07:02;18.92;;;9.20;;
49548;SDS011;35450;44.518;7.466;2022-12-05T08:10:07;11.27;;;8.38;;
49548;SDS011;35450;44.518;7.466;2022-12-05T08:13:12;9.38;;;7.50;;
49548;SDS011;35450;44.518;7.466;2022-12-05T08:16:17;12.23;;;7.70;;
49548;SDS011;35450;44.518;7.466;2022-12-05T08:19:22;12.52;;;7.75;;
49548;SDS011;35450;44.518;7.466;2022-12-05T08:22:26;9.75;;;6.30;;
49548;SDS011;35450;44.518;7.466;2022-12-05T08:25:31;8.35;;;6.47;;
49548;SDS011;35450;44.518;7.466;2022-12-05T08:28:36;17.67;;;9.77;;
49548;SDS011;35450;44.518;7.466;2022-12-05T08:31:42;17.98;;;8.68;;
49548;SDS011;35450;44.518;7.466;2022-12-05T08:34:49;10.75;;;7.10;;
49548;SDS011;35450;44.518;7.466;2022-12-05T08:37:53;8.65;;;5.75;;
49548;SDS011;35450;44.518;7.466;2022-12-05T08:41:04;9.65;;;6.53;;
49548;SDS011;35450;44.518;7.466;2022-12-05T08:44:10;9.50;;;6.18;;
49548;SDS011;35450;44.518;7.466;2022-12-05T08:47:18;7.18;;;4.40;;
49548;SDS011;35450;44.518;7.466;2022-12-05T08:50:22;3.85;;;3.13;;
49548;SDS011;35450;44.518;7.466;2022-12-05T08:53:26;7.95;;;5.30;;
49548;SDS011;35450;44.518;7.466;2022-12-05T08:56:30;5.63;;;3.70;;
49548;SDS011;35450;44.518;7.466;2022-12-05T08:59:37;3.33;;;2.50;;
49548;SDS011;35450;44.518;7.466;2022-12-05T09:02:41;2.40;;;1.75;;
49548;SDS011;35450;44.518;7.466;2022-12-05T09:05:45;2.30;;;1.77;;
49548;SDS011;35450;44.518;7.466;2022-12-05T09:08:53;1.80;;;1.52;;
49548;SDS011;35450;44.518;7.466;2022-12-05T09:11:59;1.67;;;1.30;;
49548;SDS011;35450;44.518;7.466;2022-12-05T09:15:07;1.73;;;1.40;;
49548;SDS011;35450;44.518;7.466;2022-12-05T09:18:13;2.38;;;1.48;;
49548;SDS011;35450;44.518;7.466;2022-12-05T09:21:18;2.17;;;1.52;;
49548;SDS011;35450;44.518;7.466;2022-12-05T09:24:27;2.85;;;1.48;;
49548;SDS011;35450;44.518;7.466;2022-12-05T09:27:31;2.05;;;1.60;;
49548;SDS011;35450;44.518;7.466;2022-12-05T09:30:35;4.93;;;1.67;;
49548;SDS011;35450;44.518;7.466;2022-12-05T09:33:39;3.50;;;1.52;;
49548;SDS011;35450;44.518;7.466;2022-12-05T09:36:43;5.15;;;1.70;;
49548;SDS011;35450;44.518;7.466;2022-12-05T09:39:47;2.13;;;1.90;;
49548;SDS011;35450;44.518;7.466;2022-12-05T09:42:56;2.30;;;1.80;;
49548;SDS011;35450;44.518;7.466;2022-12-05T09:46:15;3.05;;;1.92;;
49548;SDS011;35450;44.518;7.466;2022-12-05T09:49:22;2.45;;;1.80;;
49548;SDS011;35450;44.518;7.466;2022-12-05T09:52:28;3.63;;;2.20;;
49548;SDS011;35450;44.518;7.466;2022-12-05T09:55:43;2.35;;;1.73;;
49548;SDS011;35450;44.518;7.466;2022-12-05T09:58:50;3.28;;;1.92;;
49548;SDS011;35450;44.518;7.466;2022-12-05T10:02:10;3.42;;;2.00;;
49548;SDS011;35450;44.518;7.466;2022-12-05T10:05:46;4.93;;;1.90;;
49548;SDS011;35450;44.518;7.466;2022-12-05T10:16:04;7.53;;;2.42;;
49548;SDS011;35450;44.518;7.466;2022-12-05T10:19:30;2.92;;;2.00;;
49548;SDS011;35450;44.518;7.466;2022-12-05T10:25:58;2.95;;;2.30;;
49548;SDS011;35450;44.518;7.466;2022-12-05T10:35:53;1.75;;;1.63;;
49548;SDS011;35450;44.518;7.466;2022-12-05T10:38:57;4.93;;;1.95;;
49548;SDS011;35450;44.518;7.466;2022-12-05T10:42:02;5.55;;;1.92;;
49548;SDS011;35450;44.518;7.466;2022-12-05T10:45:12;2.25;;;1.80;;
49548;SDS011;35450;44.518;7.466;2022-12-05T10:48:24;2.83;;;2.22;;
49548;SDS011;35450;44.518;7.466;2022-12-05T10:51:29;2.10;;;1.73;;
49548;SDS011;35450;44.518;7.466;2022-12-05T10:54:35;2.25;;;1.85;;
49548;SDS011;35450;44.518;7.466;2022-12-05T10:57:48;9.70;;;2.22;;
49548;SDS011;35450;44.518;7.466;2022-12-05T11:01:04;2.70;;;2.15;;
49548;SDS011;35450;44.518;7.466;2022-12-05T11:10:37;2.80;;;1.90;;
49548;SDS011;35450;44.518;7.466;2022-12-05T11:13:53;3.47;;;2.15;;
49548;SDS011;35450;44.518;7.466;2022-12-05T11:17:37;3.05;;;1.70;;
49548;SDS011;35450;44.518;7.466;2022-12-05T11:20:42;2.60;;;1.77;;
49548;SDS011;35450;44.518;7.466;2022-12-05T11:23:47;2.05;;;1.73;;
49548;SDS011;35450;44.518;7.466;2022-12-05T11:26:52;8.48;;;1.77;;
49548;SDS011;35450;44.518;7.466;2022-12-05T11:33:21;3.20;;;2.28;;
49548;SDS011;35450;44.518;7.466;2022-12-05T11:36:38;3.85;;;1.75;;
49548;SDS011;35450;44.518;7.466;2022-12-05T11:39:44;4.40;;;2.35;;
49548;SDS011;35450;44.518;7.466;2022-12-05T11:43:14;4.18;;;2.22;;
49548;SDS011;35450;44.518;7.466;2022-12-05T11:50:08;2.90;;;1.90;;
49548;SDS011;35450;44.518;7.466;2022-12-05T11:57:15;2.67;;;1.85;;
49548;SDS011;35450;44.518;7.466;2022-12-05T12:04:19;3.20;;;2.40;;
49548;SDS011;35450;44.518;7.466;2022-12-05T12:14:34;2.50;;;1.73;;
49548;SDS011;35450;44.518;7.466;2022-12-05T12:25:08;2.97;;;1.90;;
49548;SDS011;35450;44.518;7.466;2022-12-05T12:28:36;2.15;;;1.88;;
49548;SDS011;35450;44.518;7.466;2022-12-05T12:31:56;7.05;;;2.20;;
49548;SDS011;35450;44.518;7.466;2022-12-05T12:56:00;1.90;;;1.52;;
49548;SDS011;35450;44.518;7.466;2022-12-05T13:02:35;2.53;;;1.88;;
49548;SDS011;35450;44.518;7.466;2022-12-05T13:05:48;4.05;;;1.58;;
49548;SDS011;35450;44.518;7.466;2022-12-05T13:09:27;2.35;;;1.25;;
49548;SDS011;35450;44.518;7.466;2022-12-05T13:12:39;1.80;;;1.30;;
49548;SDS011;35450;44.518;7.466;2022-12-05T13:15:46;3.38;;;1.85;;
49548;SDS011;35450;44.518;7.466;2022-12-05T13:18:54;7.25;;;1.70;;
49548;SDS011;35450;44.518;7.466;2022-12-05T13:21:58;2.13;;;1.58;;
49548;SDS011;35450;44.518;7.466;2022-12-05T13:25:03;2.47;;;2.15;;
49548;SDS011;35450;44.518;7.466;2022-12-05T13:28:15;4.57;;;1.85;;
49548;SDS011;35450;44.518;7.466;2022-12-05T13:31:45;4.18;;;2.38;;
49548;SDS011;35450;44.518;7.466;2022-12-05T13:34:50;2.20;;;1.67;;
49548;SDS011;35450;44.518;7.466;2022-12-05T13:37:55;2.60;;;1.88;;
49548;SDS011;35450;44.518;7.466;2022-12-05T13:41:17;1.83;;;1.65;;
49548;SDS011;35450;44.518;7.466;2022-12-05T13:54:14;2.03;;;1.80;;
49548;SDS011;35450;44.518;7.466;2022-12-05T14:00:40;6.28;;;1.90;;
49548;SDS011;35450;44.518;7.466;2022-12-05T14:09:55;2.45;;;1.90;;
49548;SDS011;35450;44.518;7.466;2022-12-05T14:13:00;2.00;;;1.80;;
49548;SDS011;35450;44.518;7.466;2022-12-05T14:23:16;4.75;;;3.15;;
49548;SDS011;35450;44.518;7.466;2022-12-05T14:33:15;3.70;;;3.00;;
49548;SDS011;35450;44.518;7.466;2022-12-05T14:36:24;3.60;;;2.42;;
49548;SDS011;35450;44.518;7.466;2022-12-05T14:39:42;3.90;;;2.55;;
49548;SDS011;35450;44.518;7.466;2022-12-05T14:46:00;4.47;;;2.65;;
49548;SDS011;35450;44.518;7.466;2022-12-05T14:56:20;5.03;;;2.92;;
49548;SDS011;35450;44.518;7.466;2022-12-05T14:59:35;5.90;;;3.58;;
49548;SDS011;35450;44.518;7.466;2022-12-05T15:03:01;5.20;;;3.05;;
49548;SDS011;35450;44.518;7.466;2022-12-05T15:06:13;6.05;;;3.63;;
49548;SDS011;35450;44.518;7.466;2022-12-05T15:12:56;6.88;;;3.92;;
49548;SDS011;35450;44.518;7.466;2022-12-05T15:16:07;11.80;;;4.20;;
49548;SDS011;35450;44.518;7.466;2022-12-05T15:19:19;11.90;;;5.40;;
49548;SDS011;35450;44.518;7.466;2022-12-05T15:22:32;14.32;;;5.78;;
49548;SDS011;35450;44.518;7.466;2022-12-05T15:25:39;9.50;;;5.40;;
49548;SDS011;35450;44.518;7.466;2022-12-05T15:28:59;3.92;;;2.78;;
49548;SDS011;35450;44.518;7.466;2022-12-05T15:35:14;21.52;;;8.88;;
49548;SDS011;35450;44.518;7.466;2022-12-05T15:38:23;29.30;;;11.18;;
49548;SDS011;35450;44.518;7.466;2022-12-05T15:41:31;23.02;;;9.55;;
49548;SDS011;35450;44.518;7.466;2022-12-05T15:44:35;5.40;;;3.53;;
49548;SDS011;35450;44.518;7.466;2022-12-05T15:50:50;8.95;;;3.30;;
49548;SDS011;35450;44.518;7.466;2022-12-05T15:54:07;3.45;;;2.63;;
49548;SDS011;35450;44.518;7.466;2022-12-05T15:57:25;4.35;;;3.20;;
49548;SDS011;35450;44.518;7.466;2022-12-05T16:00:38;26.77;;;11.80;;
49548;SDS011;35450;44.518;7.466;2022-12-05T16:03:48;28.45;;;14.02;;
49548;SDS011;35450;44.518;7.466;2022-12-05T16:06:58;34.92;;;15.85;;
49548;SDS011;35450;44.518;7.466;2022-12-05T16:10:10;32.60;;;16.58;;
49548;SDS011;35450;44.518;7.466;2022-12-05T16:13:16;7.75;;;4.35;;
49548;SDS011;35450;44.518;7.466;2022-12-05T16:16:26;6.13;;;3.00;;
49548;SDS011;35450;44.518;7.466;2022-12-05T16:19:34;11.48;;;2.92;;
49548;SDS011;35450;44.518;7.466;2022-12-05T16:22:42;6.95;;;2.72;;
49548;SDS011;35450;44.518;7.466;2022-12-05T16:25:50;3.92;;;3.08;;
49548;SDS011;35450;44.518;7.466;2022-12-05T16:28:55;5.28;;;3.35;;
49548;SDS011;35450;44.518;7.466;2022-12-05T16:32:02;6.40;;;3.88;;
49548;SDS011;35450;44.518;7.466;2022-12-05T16:38:37;4.22;;;3.67;;
49548;SDS011;35450;44.518;7.466;2022-12-05T16:41:43;4.80;;;3.42;;
49548;SDS011;35450;44.518;7.466;2022-12-05T16:48:01;6.35;;;4.88;;
49548;SDS011;35450;44.518;7.466;2022-12-05T16:54:15;5.35;;;4.10;;
49548;SDS011;35450;44.518;7.466;2022-12-05T16:57:19;7.20;;;5.68;;
49548;SDS011;35450;44.518;7.466;2022-12-05T17:00:24;17.13;;;10.13;;
49548;SDS011;35450;44.518;7.466;2022-12-05T17:03:28;19.92;;;13.98;;
49548;SDS011;35450;44.518;7.466;2022-12-05T17:06:34;18.17;;;8.10;;
49548;SDS011;35450;44.518;7.466;2022-12-05T17:09:37;15.75;;;10.52;;
49548;SDS011;35450;44.518;7.466;2022-12-05T17:12:41;23.48;;;10.10;;
49548;SDS011;35450;44.518;7.466;2022-12-05T17:15:47;21.70;;;10.32;;
49548;SDS011;35450;44.518;7.466;2022-12-05T17:18:51;25.05;;;10.57;;
49548;SDS011;35450;44.518;7.466;2022-12-05T17:21:56;20.38;;;8.98;;
49548;SDS011;35450;44.518;7.466;2022-12-05T17:25:00;14.20;;;7.82;;
49548;SDS011;35450;44.518;7.466;2022-12-05T17:28:04;6.13;;;4.30;;
49548;SDS011;35450;44.518;7.466;2022-12-05T17:31:18;21.17;;;14.93;;
49548;SDS011;35450;44.518;7.466;2022-12-05T17:34:26;9.18;;;6.65;;
49548;SDS011;35450;44.518;7.466;2022-12-05T17:37:31;6.90;;;4.63;;
49548;SDS011;35450;44.518;7.466;2022-12-05T17:40:35;17.55;;;11.98;;
49548;SDS011;35450;44.518;7.466;2022-12-05T17:43:40;12.80;;;8.25;;
49548;SDS011;35450;44.518;7.466;2022-12-05T17:46:44;5.03;;;4.13;;
49548;SDS011;35450;44.518;7.466;2022-12-05T17:49:49;5.97;;;4.53;;
49548;SDS011;35450;44.518;7.466;2022-12-05T17:52:56;9.55;;;6.13;;
49548;SDS011;35450;44.518;7.466;2022-12-05T17:56:00;7.95;;;4.97;;
49548;SDS011;35450;44.518;7.466;2022-12-05T17:59:04;4.72;;;3.78;;
49548;SDS011;35450;44.518;7.466;2022-12-05T18:02:09;6.10;;;4.30;;
49548;SDS011;35450;44.518;7.466;2022-12-05T18:05:14;5.45;;;3.42;;
49548;SDS011;35450;44.518;7.466;2022-12-05T18:08:19;6.93;;;5.28;;
49548;SDS011;35450;44.518;7.466;2022-12-05T18:11:24;5.57;;;4.35;;
49548;SDS011;35450;44.518;7.466;2022-12-05T18:14:28;6.07;;;4.45;;
49548;SDS011;35450;44.518;7.466;2022-12-05T18:17:32;5.70;;;4.32;;
49548;SDS011;35450;44.518;7.466;2022-12-05T18:20:36;7.43;;;4.13;;
49548;SDS011;35450;44.518;7.466;2022-12-05T18:23:40;5.07;;;4.18;;
49548;SDS011;35450;44.518;7.466;2022-12-05T18:26:44;4.78;;;3.45;;
49548;SDS011;35450;44.518;7.466;2022-12-05T18:29:49;4.88;;;3.80;;
49548;SDS011;35450;44.518;7.466;2022-12-05T18:32:54;8.50;;;5.82;;
49548;SDS011;35450;44.518;7.466;2022-12-05T18:36:02;16.92;;;10.98;;
49548;SDS011;35450;44.518;7.466;2022-12-05T18:39:11;9.30;;;6.70;;
49548;SDS011;35450;44.518;7.466;2022-12-05T18:42:18;4.88;;;4.22;;
49548;SDS011;35450;44.518;7.466;2022-12-05T18:45:22;5.20;;;4.22;;
49548;SDS011;35450;44.518;7.466;2022-12-05T18:48:28;10.02;;;5.40;;
49548;SDS011;35450;44.518;7.466;2022-12-05T18:51:34;8.63;;;5.88;;
49548;SDS011;35450;44.518;7.466;2022-12-05T18:54:38;6.82;;;5.05;;
49548;SDS011;35450;44.518;7.466;2022-12-05T18:57:42;5.97;;;4.95;;
49548;SDS011;35450;44.518;7.466;2022-12-05T19:00:46;9.13;;;5.47;;
49548;SDS011;35450;44.518;7.466;2022-12-05T19:03:50;11.68;;;9.82;;
49548;SDS011;35450;44.518;7.466;2022-12-05T19:06:58;10.05;;;6.90;;
49548;SDS011;35450;44.518;7.466;2022-12-05T19:10:04;6.88;;;4.80;;
49548;SDS011;35450;44.518;7.466;2022-12-05T19:13:08;8.00;;;6.20;;
49548;SDS011;35450;44.518;7.466;2022-12-05T19:16:13;9.05;;;5.68;;
49548;SDS011;35450;44.518;7.466;2022-12-05T19:19:20;6.90;;;5.45;;
49548;SDS011;35450;44.518;7.466;2022-12-05T19:22:25;6.28;;;5.43;;
49548;SDS011;35450;44.518;7.466;2022-12-05T19:25:30;8.65;;;5.13;;
49548;SDS011;35450;44.518;7.466;2022-12-05T19:28:34;6.95;;;5.38;;
49548;SDS011;35450;44.518;7.466;2022-12-05T19:31:39;9.02;;;5.63;;
49548;SDS011;35450;44.518;7.466;2022-12-05T19:34:44;6.07;;;5.47;;
49548;SDS011;35450;44.518;7.466;2022-12-05T19:37:48;6.80;;;5.20;;
49548;SDS011;35450;44.518;7.466;2022-12-05T19:40:55;5.90;;;5.30;;
49548;SDS011;35450;44.518;7.466;2022-12-05T19:44:00;7.97;;;6.65;;
49548;SDS011;35450;44.518;7.466;2022-12-05T19:47:05;13.65;;;7.60;;
49548;SDS011;35450;44.518;7.466;2022-12-05T19:50:15;8.50;;;6.15;;
49548;SDS011;35450;44.518;7.466;2022-12-05T19:53:19;11.55;;;5.88;;
49548;SDS011;35450;44.518;7.466;2022-12-05T19:56:23;9.82;;;6.28;;
49548;SDS011;35450;44.518;7.466;2022-12-05T19:59:29;7.82;;;5.35;;
49548;SDS011;35450;44.518;7.466;2022-12-05T20:02:32;5.60;;;5.00;;
49548;SDS011;35450;44.518;7.466;2022-12-05T20:05:36;6.20;;;4.57;;
49548;SDS011;35450;44.518;7.466;2022-12-05T20:08:40;7.22;;;4.70;;
49548;SDS011;35450;44.518;7.466;2022-12-05T20:11:45;6.93;;;5.10;;
49548;SDS011;35450;44.518;7.466;2022-12-05T20:14:50;18.50;;;6.13;;
49548;SDS011;35450;44.518;7.466;2022-12-05T20:17:54;7.53;;;6.05;;
49548;SDS011;35450;44.518;7.466;2022-12-05T20:20:59;10.07;;;5.30;;
49548;SDS011;35450;44.518;7.466;2022-12-05T20:24:04;8.00;;;5.63;;
49548;SDS011;35450;44.518;7.466;2022-12-05T20:27:09;6.70;;;5.53;;
49548;SDS011;35450;44.518;7.466;2022-12-05T20:30:13;9.82;;;7.18;;
49548;SDS011;35450;44.518;7.466;2022-12-05T20:33:17;12.73;;;7.47;;
49548;SDS011;35450;44.518;7.466;2022-12-05T20:36:22;7.25;;;6.18;;
49548;SDS011;35450;44.518;7.466;2022-12-05T20:39:27;8.15;;;5.15;;
49548;SDS011;35450;44.518;7.466;2022-12-05T20:42:32;9.98;;;7.15;;
49548;SDS011;35450;44.518;7.466;2022-12-05T20:45:36;9.48;;;7.22;;
49548;SDS011;35450;44.518;7.466;2022-12-05T20:48:41;7.97;;;6.15;;
49548;SDS011;35450;44.518;7.466;2022-12-05T20:51:45;7.18;;;6.05;;
49548;SDS011;35450;44.518;7.466;2022-12-05T20:54:50;12.90;;;7.15;;
49548;SDS011;35450;44.518;7.466;2022-12-05T20:57:54;10.23;;;7.63;;
49548;SDS011;35450;44.518;7.466;2022-12-05T21:00:58;8.25;;;6.53;;
49548;SDS011;35450;44.518;7.466;2022-12-05T21:04:07;8.38;;;6.55;;
49548;SDS011;35450;44.518;7.466;2022-12-05T21:07:13;8.05;;;6.05;;
49548;SDS011;35450;44.518;7.466;2022-12-05T21:10:17;6.70;;;5.20;;
49548;SDS011;35450;44.518;7.466;2022-12-05T21:13:21;7.53;;;5.88;;
49548;SDS011;35450;44.518;7.466;2022-12-05T21:16:25;8.40;;;6.22;;
49548;SDS011;35450;44.518;7.466;2022-12-05T21:19:29;8.77;;;6.07;;
49548;SDS011;35450;44.518;7.466;2022-12-05T21:22:33;7.85;;;6.18;;
49548;SDS011;35450;44.518;7.466;2022-12-05T21:25:37;63.88;;;27.75;;
49548;SDS011;35450;44.518;7.466;2022-12-05T21:28:41;22.05;;;13.07;;
49548;SDS011;35450;44.518;7.466;2022-12-05T21:31:48;17.98;;;10.20;;
49548;SDS011;35450;44.518;7.466;2022-12-05T21:34:52;14.25;;;8.45;;
49548;SDS011;35450;44.518;7.466;2022-12-05T21:37:57;21.38;;;11.15;;
49548;SDS011;35450;44.518;7.466;2022-12-05T21:41:02;16.60;;;10.77;;